createdAt,value
2022-09-11T00:00:18.458Z,4.50
2022-09-11T00:05:41.841Z,1.85
2022-09-11T00:11:18.642Z,3.03
2022-09-11T00:16:43.204Z,1.27
2022-09-11T00:22:06.099Z,6.00
2022-09-11T00:27:27.788Z,5.68
2022-09-11T00:32:50.169Z,4.10
2022-09-11T00:38:16.647Z,2.47
2022-09-11T00:44:03.578Z,6.10
2022-09-11T00:49:43.112Z,2.72
2022-09-11T00:55:14.717Z,1.70
2022-09-11T01:00:39.671Z,1.45
2022-09-11T01:06:02.053Z,3.55
2022-09-11T01:11:49.831Z,4.07
2022-09-11T01:17:22.194Z,3.63
2022-09-11T01:23:19.859Z,1.15
2022-09-11T01:28:54.970Z,4.85
2022-09-11T01:34:26.036Z,4.27
2022-09-11T01:39:56.450Z,1.73
2022-09-11T01:45:18.859Z,3.58
2022-09-11T01:50:45.292Z,2.28
2022-09-11T01:56:10.946Z,1.35
2022-09-11T02:01:35.635Z,2.30
2022-09-11T02:07:30.415Z,1.03
2022-09-11T02:13:18.510Z,1.63
2022-09-11T02:18:57.248Z,1.52
2022-09-11T02:24:20.183Z,0.90
2022-09-11T02:29:42.561Z,2.47
2022-09-11T02:35:05.211Z,0.65
2022-09-11T02:40:51.558Z,3.72
2022-09-11T02:46:45.409Z,1.00
2022-09-11T02:52:28.386Z,1.85
2022-09-11T02:58:03.276Z,4.85
2022-09-11T03:03:24.888Z,3.25
2022-09-11T03:08:47.036Z,1.10
2022-09-11T03:14:09.149Z,1.65
2022-09-11T03:19:31.029Z,2.70
2022-09-11T03:24:52.649Z,1.45
2022-09-11T03:30:14.476Z,1.10
2022-09-11T03:35:36.266Z,2.17
2022-09-11T03:40:58.573Z,1.08
2022-09-11T03:46:20.282Z,2.25
2022-09-11T03:51:42.008Z,1.25
2022-09-11T03:57:03.922Z,0.70
2022-09-11T04:02:25.680Z,2.83
2022-09-11T04:07:48.605Z,2.42
2022-09-11T04:13:11.129Z,1.42
2022-09-11T04:18:35.720Z,1.30
2022-09-11T04:24:00.416Z,1.27
2022-09-11T04:29:22.695Z,3.13
2022-09-11T04:34:44.343Z,1.20
2022-09-11T04:40:06.647Z,1.88
2022-09-11T04:45:33.788Z,0.80
2022-09-11T04:51:00.676Z,3.30
2022-09-11T04:56:22.420Z,1.75
2022-09-11T05:01:44.700Z,1.55
2022-09-11T05:07:07.158Z,1.02
2022-09-11T05:12:31.992Z,3.85
2022-09-11T05:17:53.633Z,3.80
2022-09-11T05:23:15.274Z,5.47
2022-09-11T05:28:37.910Z,3.65
2022-09-11T05:34:00.737Z,7.10
2022-09-11T05:39:22.438Z,3.88
2022-09-11T05:44:44.168Z,2.92
2022-09-11T05:50:06.310Z,2.55
2022-09-11T05:55:28.296Z,5.07
2022-09-11T06:00:50.007Z,5.72
2022-09-11T06:06:13.342Z,3.92
2022-09-11T06:11:35.231Z,2.20
2022-09-11T06:16:57.375Z,6.60
2022-09-11T06:22:19.143Z,2.88
2022-09-11T06:27:40.788Z,3.38
2022-09-11T06:33:02.417Z,3.38
2022-09-11T06:38:24.262Z,4.28
2022-09-11T06:43:45.948Z,3.47
2022-09-11T06:49:07.689Z,2.30
2022-09-11T06:54:29.388Z,2.85
2022-09-11T06:59:52.757Z,4.47
2022-09-11T07:05:14.592Z,4.35
2022-09-11T07:10:36.233Z,4.82
2022-09-11T07:16:02.846Z,4.65
2022-09-11T07:21:26.927Z,3.95
2022-09-11T07:26:48.567Z,2.33
2022-09-11T07:32:10.455Z,4.28
2022-09-11T07:37:32.152Z,5.05
2022-09-11T07:42:54.001Z,5.07
2022-09-11T07:48:15.768Z,6.70
2022-09-11T07:53:46.377Z,4.28
2022-09-11T07:59:09.069Z,2.78
2022-09-11T08:04:30.730Z,3.35
2022-09-11T08:10:04.588Z,2.40
2022-09-11T08:15:34.181Z,2.65
2022-09-11T08:21:07.619Z,6.70
2022-09-11T08:26:31.518Z,3.45
2022-09-11T08:31:53.188Z,4.32
2022-09-11T08:37:14.845Z,4.97
2022-09-11T08:42:37.914Z,5.05
2022-09-11T08:48:00.647Z,2.30
2022-09-11T08:53:22.347Z,3.90
2022-09-11T08:58:46.752Z,3.75
2022-09-11T09:04:21.334Z,3.38
2022-09-11T09:10:01.397Z,3.00
2022-09-11T09:15:26.239Z,2.58
2022-09-11T09:21:02.889Z,5.43
2022-09-11T09:26:37.734Z,3.60
2022-09-11T09:32:05.812Z,4.65
2022-09-11T09:37:28.187Z,2.47
2022-09-11T09:42:59.474Z,3.78
2022-09-11T09:48:21.110Z,4.07
2022-09-11T09:53:53.193Z,5.10
2022-09-11T09:59:19.164Z,4.07
2022-09-11T10:04:40.870Z,5.18
2022-09-11T10:10:04.871Z,4.82
2022-09-11T10:15:27.556Z,5.05
2022-09-11T10:20:49.543Z,6.43
2022-09-11T10:26:17.481Z,7.47
2022-09-11T10:31:41.214Z,4.47
2022-09-11T10:37:21.400Z,4.63
2022-09-11T10:42:43.022Z,5.85
2022-09-11T10:48:23.063Z,8.60
2022-09-11T10:54:14.955Z,6.63
2022-09-11T10:59:51.544Z,10.98
2022-09-11T11:05:27.245Z,10.25
2022-09-11T11:11:03.930Z,13.00
2022-09-11T11:16:39.689Z,14.63
2022-09-11T11:22:01.432Z,16.20
2022-09-11T11:27:25.705Z,23.27
2022-09-11T11:32:47.314Z,18.23
2022-09-11T11:38:16.143Z,18.05
2022-09-11T11:43:40.993Z,20.73
2022-09-11T11:49:10.179Z,15.73
2022-09-11T11:54:57.071Z,16.02
2022-09-11T12:00:19.313Z,24.60
2022-09-11T12:05:41.224Z,15.32
2022-09-11T12:11:06.570Z,14.05
2022-09-11T12:16:33.980Z,16.42
2022-09-11T12:21:55.640Z,10.63
2022-09-11T12:27:35.344Z,14.55
2022-09-11T12:33:00.068Z,11.40
2022-09-11T12:38:39.913Z,10.00
2022-09-11T12:44:03.542Z,15.70
2022-09-11T12:49:27.407Z,9.93
2022-09-11T12:54:49.140Z,9.05
2022-09-11T13:00:24.638Z,13.82
2022-09-11T13:05:55.607Z,11.10
2022-09-11T13:11:38.352Z,8.68
2022-09-11T13:17:12.433Z,11.18
2022-09-11T13:22:35.385Z,10.68
2022-09-11T13:28:01.463Z,10.20
2022-09-11T13:33:28.092Z,9.82
2022-09-11T13:38:54.649Z,10.25
2022-09-11T13:44:43.026Z,9.98
2022-09-11T13:50:11.029Z,7.45
2022-09-11T13:55:32.772Z,7.97
2022-09-11T14:00:55.637Z,6.63
2022-09-11T14:06:20.096Z,6.43
2022-09-11T14:11:41.850Z,7.80
2022-09-11T14:17:03.629Z,8.38
2022-09-11T14:22:31.180Z,6.72
2022-09-11T14:27:53.332Z,8.18
2022-09-11T14:33:18.068Z,6.57
2022-09-11T14:38:40.810Z,4.93
2022-09-11T14:44:02.757Z,4.25
2022-09-11T14:49:24.500Z,4.32
2022-09-11T14:54:47.681Z,4.82
2022-09-11T15:00:13.541Z,5.45
2022-09-11T15:05:35.586Z,4.22
2022-09-11T15:10:57.225Z,5.70
2022-09-11T15:16:18.980Z,4.13
2022-09-11T15:21:40.922Z,2.92
2022-09-11T15:27:03.982Z,4.13
2022-09-11T15:32:25.814Z,4.18
2022-09-11T15:37:47.554Z,3.90
2022-09-11T15:43:09.289Z,5.38
2022-09-11T15:48:31.136Z,6.93
2022-09-11T15:53:52.792Z,6.60
2022-09-11T15:59:17.928Z,12.85
2022-09-11T16:04:39.606Z,11.48
2022-09-11T16:10:01.313Z,23.60
2022-09-11T16:15:23.022Z,21.00
2022-09-11T16:20:45.434Z,28.02
2022-09-11T16:26:09.875Z,30.92
2022-09-11T16:31:31.592Z,43.13
2022-09-11T16:36:53.285Z,44.20
2022-09-11T16:42:14.934Z,44.10
2022-09-11T16:47:37.099Z,50.72
2022-09-11T16:52:59.240Z,42.90
2022-09-11T16:58:21.636Z,47.67
2022-09-11T17:03:49.044Z,45.08
2022-09-11T17:09:10.729Z,48.35
2022-09-11T17:14:32.926Z,44.10
2022-09-11T17:19:54.568Z,42.08
2022-09-11T17:25:16.217Z,39.70
2022-09-11T17:30:39.184Z,40.55
2022-09-11T17:36:02.062Z,38.38
2022-09-11T17:41:23.786Z,35.30
2022-09-11T17:46:45.448Z,32.65
2022-09-11T17:52:07.497Z,32.22
2022-09-11T17:57:29.340Z,31.80
2022-09-11T18:02:52.001Z,31.58
2022-09-11T18:08:13.727Z,30.50
2022-09-11T18:13:35.719Z,26.23
2022-09-11T18:18:57.419Z,25.58
2022-09-11T18:24:20.897Z,25.35
2022-09-11T18:29:42.598Z,33.40
2022-09-11T18:35:05.351Z,32.40
2022-09-11T18:40:27.147Z,42.17
2022-09-11T18:45:48.861Z,30.75
2022-09-11T18:51:11.483Z,32.08
2022-09-11T18:56:33.292Z,33.33
2022-09-11T19:01:55.321Z,26.38
2022-09-11T19:07:17.106Z,27.88
2022-09-11T19:12:39.648Z,25.77
2022-09-11T19:18:01.833Z,24.63
2022-09-11T19:23:23.738Z,27.58
2022-09-11T19:28:47.142Z,20.88
2022-09-11T19:34:12.062Z,27.08
2022-09-11T19:39:33.744Z,20.80
2022-09-11T19:44:56.395Z,20.38
2022-09-11T19:50:22.037Z,23.23
2022-09-11T19:55:43.717Z,23.88
2022-09-11T20:01:13.766Z,44.45
2022-09-11T20:06:36.316Z,38.95
2022-09-11T20:11:57.995Z,47.33
2022-09-11T20:17:19.661Z,26.10
2022-09-11T20:22:41.261Z,22.85
2022-09-11T20:28:03.286Z,25.15
2022-09-11T20:33:24.922Z,27.92
2022-09-11T20:38:54.428Z,29.65
2022-09-11T20:44:16.195Z,23.50
2022-09-11T20:49:37.870Z,19.40
2022-09-11T20:55:00.572Z,17.58
2022-09-11T21:00:22.440Z,14.63
2022-09-11T21:05:45.001Z,14.25
2022-09-11T21:11:07.254Z,19.00
2022-09-11T21:16:29.025Z,20.15
2022-09-11T21:21:50.816Z,13.77
2022-09-11T21:27:12.482Z,18.33
2022-09-11T21:32:34.119Z,14.10
2022-09-11T21:37:55.760Z,11.07
2022-09-11T21:43:18.113Z,12.32
2022-09-11T21:48:41.644Z,14.35
2022-09-11T21:54:03.310Z,19.92
2022-09-11T21:59:24.956Z,12.13
2022-09-11T22:04:46.693Z,10.30
2022-09-11T22:10:08.908Z,11.75
2022-09-11T22:15:30.535Z,11.18
2022-09-11T22:20:52.217Z,12.43
2022-09-11T22:26:19.954Z,7.75
2022-09-11T22:31:41.729Z,13.43
2022-09-11T22:37:03.650Z,11.75
2022-09-11T22:42:25.440Z,11.63
2022-09-11T22:47:47.115Z,8.02
2022-09-11T22:53:08.769Z,9.20
2022-09-11T22:58:30.998Z,11.45
2022-09-11T23:03:53.409Z,8.85
2022-09-11T23:09:17.110Z,8.35
2022-09-11T23:14:38.796Z,9.73
2022-09-11T23:20:00.628Z,10.98
2022-09-11T23:25:24.337Z,10.10
2022-09-11T23:30:46.144Z,7.18
2022-09-11T23:36:09.858Z,9.57
2022-09-11T23:41:32.203Z,6.88
2022-09-11T23:46:53.949Z,9.45
2022-09-11T23:52:15.692Z,6.60
2022-09-11T23:57:37.334Z,7.32
